createdAt,value
2017-01-18T00:00:10.407Z,78.9
2017-01-18T00:00:40.434Z,78.81
2017-01-18T00:01:10.463Z,78.62
2017-01-18T00:01:40.500Z,78.71
2017-01-18T00:02:10.519Z,78.62
2017-01-18T00:02:40.545Z,78.62
2017-01-18T00:03:10.575Z,78.62
2017-01-18T00:03:40.605Z,78.34
2017-01-18T00:04:10.625Z,78.43
2017-01-18T00:04:40.686Z,78.43
2017-01-18T00:05:10.684Z,78.81
2017-01-18T00:05:40.710Z,78.81
2017-01-18T00:06:10.738Z,78.28
2017-01-18T00:06:40.761Z,78.24
2017-01-18T00:07:10.801Z,78.24
2017-01-18T00:07:40.821Z,78.24
2017-01-18T00:08:10.846Z,78.34
2017-01-18T00:08:40.877Z,78.24
2017-01-18T00:09:10.906Z,78.43
2017-01-18T00:09:40.926Z,78.43
2017-01-18T00:10:10.964Z,78.24
2017-01-18T00:10:40.985Z,78.81
2017-01-18T00:11:11.015Z,78.81
2017-01-18T00:11:41.040Z,78.71
2017-01-18T00:12:11.066Z,79.09
2017-01-18T00:12:41.095Z,78.71
2017-01-18T00:13:11.128Z,78.43
2017-01-18T00:13:41.153Z,78.71
2017-01-18T00:14:11.180Z,78.62
2017-01-18T00:14:41.211Z,78.62
2017-01-18T00:15:11.242Z,78.81
2017-01-18T00:15:41.269Z,78.71
2017-01-18T00:16:11.299Z,78.52
2017-01-18T00:16:41.318Z,78.9
2017-01-18T00:17:11.345Z,78.71
2017-01-18T00:17:41.371Z,78.62
2017-01-18T00:18:11.403Z,78.24
2017-01-18T00:18:41.432Z,78.15
2017-01-18T00:19:11.456Z,78.15
2017-01-18T00:19:41.484Z,78.15
2017-01-18T00:20:11.509Z,78.81
2017-01-18T00:20:41.541Z,78.34
2017-01-18T00:21:11.564Z,78.62
2017-01-18T00:21:41.598Z,78.62
2017-01-18T00:22:11.616Z,78.71
2017-01-18T00:22:41.653Z,78.81
2017-01-18T00:23:11.682Z,78.71
2017-01-18T00:23:41.715Z,78.52
2017-01-18T00:24:11.732Z,78.43
2017-01-18T00:24:41.758Z,78.34
2017-01-18T00:25:11.785Z,78.34
2017-01-18T00:25:41.817Z,78.15
2017-01-18T00:26:11.845Z,78.34
2017-01-18T00:26:41.868Z,78.34
2017-01-18T00:27:11.899Z,78.34
2017-01-18T00:27:41.922Z,78.71
2017-01-18T00:28:11.953Z,78.34
2017-01-18T00:28:41.979Z,78.52
2017-01-18T00:29:12.013Z,78.34
2017-01-18T00:29:42.039Z,78.43
2017-01-18T00:30:12.067Z,78.52
2017-01-18T00:30:42.090Z,77.96
2017-01-18T00:31:12.118Z,78.15
2017-01-18T00:31:42.149Z,78.15
2017-01-18T00:32:12.174Z,78.15
2017-01-18T00:32:42.206Z,78.15
2017-01-18T00:33:12.252Z,78.05
2017-01-18T00:33:42.259Z,78.24
2017-01-18T00:34:12.285Z,78.81
2017-01-18T00:34:42.310Z,78.71
2017-01-18T00:35:12.340Z,78.43
2017-01-18T00:35:42.362Z,78.52
2017-01-18T00:36:12.392Z,78.62
2017-01-18T00:36:42.432Z,78.71
2017-01-18T00:37:12.448Z,78.62
2017-01-18T00:37:42.478Z,78.71
2017-01-18T00:38:12.510Z,78.81
2017-01-18T00:38:42.535Z,78.62
2017-01-18T00:39:12.559Z,78.81
2017-01-18T00:39:42.586Z,78.81
2017-01-18T00:40:12.614Z,78.15
2017-01-18T00:40:42.645Z,78.15
2017-01-18T00:41:12.698Z,78.62
2017-01-18T00:41:42.696Z,78.71
2017-01-18T00:42:12.735Z,78.81
2017-01-18T00:42:42.753Z,78.62
2017-01-18T00:43:12.785Z,79
2017-01-18T00:43:42.808Z,79.09
2017-01-18T00:44:12.830Z,79
2017-01-18T00:44:42.862Z,79.66
2017-01-18T00:45:12.889Z,79.66
2017-01-18T00:45:42.914Z,78.9
2017-01-18T00:46:12.954Z,79.09
2017-01-18T00:46:42.971Z,79.09
2017-01-18T00:47:13.002Z,79.66
2017-01-18T00:47:43.030Z,78.9
2017-01-18T00:48:13.055Z,79
2017-01-18T00:48:43.085Z,78.9
2017-01-18T00:49:13.111Z,79
2017-01-18T00:49:43.141Z,79.19
2017-01-18T00:50:13.165Z,79.19
2017-01-18T00:50:43.196Z,79.09
2017-01-18T00:51:13.219Z,79.09
2017-01-18T00:51:43.251Z,78.9
2017-01-18T00:52:13.277Z,79.13
2017-01-18T00:52:43.451Z,79.19
2017-01-18T00:53:13.332Z,79.03
2017-01-18T00:53:43.358Z,79
2017-01-18T00:54:13.384Z,78.71
2017-01-18T00:54:43.415Z,79.03
2017-01-18T00:55:13.443Z,79.09
2017-01-18T00:55:43.469Z,79.03
2017-01-18T00:56:13.499Z,79
2017-01-18T00:56:43.522Z,78.66
2017-01-18T00:57:13.555Z,78.47
2017-01-18T00:57:43.583Z,78.75
2017-01-18T00:58:13.612Z,78.56
2017-01-18T00:58:43.635Z,78.94
2017-01-18T00:59:13.666Z,78.34
2017-01-18T00:59:43.692Z,78.47
2017-01-18T01:00:13.746Z,78.62
2017-01-18T01:00:43.747Z,78.66
2017-01-18T01:01:13.770Z,78.71
2017-01-18T01:01:43.804Z,78.28
2017-01-18T01:02:13.826Z,78.09
2017-01-18T01:02:44.005Z,78.05
2017-01-18T01:03:13.884Z,78.81
2017-01-18T01:03:43.917Z,78.85
2017-01-18T01:04:13.942Z,78.81
2017-01-18T01:04:43.969Z,78.47
2017-01-18T01:05:13.992Z,78.56
2017-01-18T01:05:44.028Z,78.66
2017-01-18T01:06:14.048Z,78.66
2017-01-18T01:06:44.080Z,78.85
2017-01-18T01:07:14.109Z,78.28
2017-01-18T01:07:44.133Z,78.38
2017-01-18T01:08:14.163Z,78.19
2017-01-18T01:08:44.191Z,78
2017-01-18T01:09:14.220Z,78.85
2017-01-18T01:09:44.244Z,78.85
2017-01-18T01:10:14.273Z,78.85
2017-01-18T01:10:44.305Z,78.28
2017-01-18T01:11:14.477Z,78.09
2017-01-18T01:11:44.354Z,78.38
2017-01-18T01:12:14.382Z,78.38
2017-01-18T01:12:44.406Z,78.38
2017-01-18T01:13:14.440Z,78.28
2017-01-18T01:13:44.467Z,78.28
2017-01-18T01:14:14.492Z,78.28
2017-01-18T01:14:44.522Z,78.75
2017-01-18T01:15:14.549Z,78.66
2017-01-18T01:15:44.575Z,78.47
2017-01-18T01:16:14.612Z,78.38
2017-01-18T01:16:44.632Z,78.75
2017-01-18T01:17:14.660Z,78.85
2017-01-18T01:17:44.689Z,78.66
2017-01-18T01:18:14.726Z,78.66
2017-01-18T01:18:44.742Z,78.66
2017-01-18T01:19:14.768Z,78.38
2017-01-18T01:19:44.800Z,78.75
2017-01-18T01:20:14.829Z,78.75
2017-01-18T01:20:44.851Z,78.75
2017-01-18T01:21:14.892Z,78.47
2017-01-18T01:21:44.941Z,78.47
2017-01-18T01:22:14.938Z,78.85
2017-01-18T01:22:44.963Z,78.28
2017-01-18T01:23:14.995Z,78.38
2017-01-18T01:23:45.025Z,78.28
2017-01-18T01:24:15.052Z,78.38
2017-01-18T01:24:45.076Z,78.28
2017-01-18T01:25:15.102Z,78.28
2017-01-18T01:25:45.133Z,78.09
2017-01-18T01:26:15.163Z,78.47
2017-01-18T01:26:45.187Z,78.28
2017-01-18T01:27:15.218Z,78.09
2017-01-18T01:27:45.245Z,78.38
2017-01-18T01:28:15.272Z,78.56
2017-01-18T01:28:45.297Z,78.38
2017-01-18T01:29:15.324Z,78.19
2017-01-18T01:29:45.353Z,78.19
2017-01-18T01:30:15.386Z,78.47
2017-01-18T01:30:45.412Z,78.19
2017-01-18T01:31:15.439Z,78.28
2017-01-18T01:31:45.463Z,78.56
2017-01-18T01:32:15.490Z,78.28
2017-01-18T01:32:45.522Z,78.19
2017-01-18T01:33:15.543Z,78.28
2017-01-18T01:33:45.580Z,78.85
2017-01-18T01:34:15.603Z,78.28
2017-01-18T01:34:45.644Z,78.56
2017-01-18T01:35:15.667Z,78.38
2017-01-18T01:35:45.686Z,78.28
2017-01-18T01:36:15.716Z,78
2017-01-18T01:36:45.741Z,78.38
2017-01-18T01:37:15.769Z,78.19
2017-01-18T01:37:45.796Z,78.09
2017-01-18T01:38:15.826Z,78
2017-01-18T01:38:46.204Z,77.62
2017-01-18T01:39:15.879Z,77.91
2017-01-18T01:39:45.912Z,78
2017-01-18T01:40:15.938Z,78.09
2017-01-18T01:40:45.963Z,77.53
2017-01-18T01:41:15.992Z,77.53
2017-01-18T01:41:46.018Z,77.25
2017-01-18T01:42:16.047Z,77.44
2017-01-18T01:42:46.079Z,77.72
2017-01-18T01:43:16.104Z,77.91
2017-01-18T01:43:46.133Z,77.91
2017-01-18T01:44:16.159Z,78
2017-01-18T01:44:46.184Z,78.09
2017-01-18T01:45:16.210Z,77.62
2017-01-18T01:45:46.244Z,77.91
2017-01-18T01:46:16.277Z,77.62
2017-01-18T01:46:46.301Z,77.91
2017-01-18T01:47:16.328Z,78.28
2017-01-18T01:47:46.356Z,77.91
2017-01-18T01:48:16.386Z,78
2017-01-18T01:48:46.410Z,78.09
2017-01-18T01:49:16.446Z,78.19
2017-01-18T01:49:46.465Z,78.09
2017-01-18T01:50:16.495Z,77.62
2017-01-18T01:50:46.524Z,77.53
2017-01-18T01:51:16.548Z,77.44
2017-01-18T01:51:46.579Z,77.25
2017-01-18T01:52:16.604Z,78
2017-01-18T01:52:46.634Z,78
2017-01-18T01:53:16.660Z,77.91
2017-01-18T01:53:46.694Z,78
2017-01-18T01:54:16.716Z,78.09
2017-01-18T01:54:46.743Z,77.91
2017-01-18T01:55:16.767Z,77.53
2017-01-18T01:55:46.802Z,77.72
2017-01-18T01:56:16.827Z,77.53
2017-01-18T01:56:46.853Z,77.72
2017-01-18T01:57:16.880Z,77.91
2017-01-18T01:57:46.909Z,77.72
2017-01-18T01:58:16.946Z,78.09
2017-01-18T01:58:46.969Z,77.91
2017-01-18T01:59:16.995Z,77.72
2017-01-18T01:59:47.023Z,77.62
2017-01-18T02:00:17.050Z,77.44
2017-01-18T02:00:47.077Z,77.72
2017-01-18T02:01:17.106Z,77.53
2017-01-18T02:01:47.133Z,77.25
2017-01-18T02:02:17.163Z,77.34
2017-01-18T02:02:47.186Z,77.53
2017-01-18T02:03:17.216Z,77.53
2017-01-18T02:03:47.244Z,78.19
2017-01-18T02:04:17.272Z,78.09
2017-01-18T02:04:47.302Z,77.53
2017-01-18T02:05:17.329Z,78.09
2017-01-18T02:05:47.357Z,77.53
2017-01-18T02:06:17.386Z,77.53
2017-01-18T02:06:47.413Z,77.44
2017-01-18T02:07:17.440Z,77.53
2017-01-18T02:07:47.469Z,77.25
2017-01-18T02:08:17.496Z,77.53
2017-01-18T02:08:47.536Z,77.34
2017-01-18T02:09:17.555Z,77.44
2017-01-18T02:09:47.581Z,77.62
2017-01-18T02:10:17.607Z,77.91
2017-01-18T02:10:47.638Z,78.09
2017-01-18T02:11:17.663Z,78
2017-01-18T02:11:47.690Z,77.72
2017-01-18T02:12:17.717Z,77.62
2017-01-18T02:12:47.748Z,77.44
2017-01-18T02:13:17.776Z,77.53
2017-01-18T02:13:47.805Z,77.62
2017-01-18T02:14:17.840Z,77.72
2017-01-18T02:14:47.860Z,77.62
2017-01-18T02:15:17.884Z,77.53
2017-01-18T02:15:47.914Z,77.44
2017-01-18T02:16:17.946Z,77.34
2017-01-18T02:16:47.969Z,77.62
2017-01-18T02:17:17.995Z,77.44
2017-01-18T02:17:48.026Z,77.34
2017-01-18T02:18:18.052Z,77.34
2017-01-18T02:18:48.080Z,77.44
2017-01-18T02:19:18.108Z,77.53
2017-01-18T02:19:48.138Z,77.72
2017-01-18T02:20:18.167Z,77.53
2017-01-18T02:20:48.195Z,77.53
2017-01-18T02:21:18.225Z,77.62
2017-01-18T02:21:48.248Z,77.72
2017-01-18T02:22:18.280Z,77.53
2017-01-18T02:22:48.302Z,77.44
2017-01-18T02:23:18.331Z,77.62
2017-01-18T02:23:48.361Z,77.53
2017-01-18T02:24:18.389Z,77.72
2017-01-18T02:24:48.414Z,77.72
2017-01-18T02:25:18.445Z,77.44
2017-01-18T02:25:48.471Z,77.62
2017-01-18T02:26:18.503Z,77.62
2017-01-18T02:26:48.557Z,77.72
2017-01-18T02:27:18.553Z,77.44
2017-01-18T02:27:48.585Z,77.06
2017-01-18T02:28:18.611Z,77.25
2017-01-18T02:28:48.643Z,77.09
2017-01-18T02:29:18.668Z,77.28
2017-01-18T02:29:48.695Z,77.28
2017-01-18T02:30:18.722Z,76.81
2017-01-18T02:30:48.756Z,77.47
2017-01-18T02:31:18.786Z,77.09
2017-01-18T02:31:48.812Z,76.9
2017-01-18T02:32:18.838Z,76.81
2017-01-18T02:32:48.863Z,77
2017-01-18T02:33:18.894Z,77.56
2017-01-18T02:33:48.922Z,76.87
2017-01-18T02:34:18.949Z,77
2017-01-18T02:34:48.977Z,77.19
2017-01-18T02:35:19.007Z,77
2017-01-18T02:35:49.035Z,76.9
2017-01-18T02:36:19.066Z,76.81
2017-01-18T02:36:49.088Z,77.47
2017-01-18T02:37:19.120Z,76.9
2017-01-18T02:37:49.146Z,77
2017-01-18T02:38:19.174Z,76.9
2017-01-18T02:38:49.202Z,76.72
2017-01-18T02:39:19.229Z,77
2017-01-18T02:39:49.256Z,77
2017-01-18T02:40:19.282Z,76.72
2017-01-18T02:40:49.317Z,76.62
2017-01-18T02:41:19.347Z,76.81
2017-01-18T02:41:49.373Z,77
2017-01-18T02:42:19.401Z,77.47
2017-01-18T02:42:49.428Z,77.37
2017-01-18T02:43:19.457Z,76.9
2017-01-18T02:43:49.480Z,77.19
2017-01-18T02:44:19.515Z,76.72
2017-01-18T02:44:49.542Z,77
2017-01-18T02:45:19.571Z,76.9
2017-01-18T02:45:49.595Z,76.81
2017-01-18T02:46:19.624Z,77
2017-01-18T02:46:49.654Z,76.9
2017-01-18T02:47:19.682Z,77.09
2017-01-18T02:47:49.705Z,76.53
2017-01-18T02:48:19.738Z,76.81
2017-01-18T02:48:49.766Z,77.19
2017-01-18T02:49:19.795Z,76.34
2017-01-18T02:49:49.823Z,76.62
2017-01-18T02:50:19.853Z,76.72
2017-01-18T02:50:49.876Z,76.53
2017-01-18T02:51:19.906Z,76.72
2017-01-18T02:51:49.936Z,76.9
2017-01-18T02:52:19.964Z,76.9
2017-01-18T02:52:49.989Z,76.81
2017-01-18T02:53:20.019Z,76.9
2017-01-18T02:53:50.048Z,77.09
2017-01-18T02:54:20.076Z,77.09
2017-01-18T02:54:50.132Z,77.19
2017-01-18T02:55:20.128Z,77
2017-01-18T02:55:50.162Z,76.9
2017-01-18T02:56:20.187Z,76.34
2017-01-18T02:56:50.215Z,76.72
2017-01-18T02:57:20.243Z,76.81
2017-01-18T02:57:50.278Z,76.34
2017-01-18T02:58:20.299Z,76.72
2017-01-18T02:58:50.328Z,77
2017-01-18T02:59:20.353Z,77.28
2017-01-18T02:59:50.382Z,77
2017-01-18T03:00:20.416Z,76.9
2017-01-18T03:00:50.444Z,76.43
2017-01-18T03:01:20.469Z,76.53
2017-01-18T03:01:50.501Z,76.25
2017-01-18T03:02:20.522Z,76.25
2017-01-18T03:02:50.558Z,76.25
2017-01-18T03:03:20.578Z,76.43
2017-01-18T03:03:50.609Z,77.19
2017-01-18T03:04:20.637Z,77
2017-01-18T03:04:50.662Z,76.72
2017-01-18T03:05:20.688Z,76.43
2017-01-18T03:05:50.724Z,76.34
2017-01-18T03:06:20.750Z,76.62
2017-01-18T03:06:50.784Z,76.72
2017-01-18T03:07:20.802Z,76.34
2017-01-18T03:07:50.830Z,76.53
2017-01-18T03:08:20.857Z,76.06
2017-01-18T03:08:50.888Z,76.06
2017-01-18T03:09:20.918Z,75.78
2017-01-18T03:09:50.947Z,75.87
2017-01-18T03:10:20.976Z,76.06
2017-01-18T03:10:51.007Z,75.68
2017-01-18T03:11:21.029Z,75.96
2017-01-18T03:11:51.056Z,76.43
2017-01-18T03:12:21.087Z,76.06
2017-01-18T03:12:51.115Z,75.96
2017-01-18T03:13:21.138Z,76.25
2017-01-18T03:13:51.169Z,76.34
2017-01-18T03:14:21.201Z,76.43
2017-01-18T03:14:51.230Z,76.72
2017-01-18T03:15:21.255Z,76.15
2017-01-18T03:15:51.286Z,75.96
2017-01-18T03:16:21.311Z,75.96
2017-01-18T03:16:51.340Z,75.87
2017-01-18T03:17:21.369Z,75.49
2017-01-18T03:17:51.402Z,75.4
2017-01-18T03:18:21.428Z,75.68
2017-01-18T03:18:51.456Z,75.96
2017-01-18T03:19:21.483Z,75.96
2017-01-18T03:19:51.509Z,75.78
2017-01-18T03:20:21.536Z,75.87
2017-01-18T03:20:51.592Z,75.78
2017-01-18T03:21:21.593Z,75.78
2017-01-18T03:21:51.614Z,75.49
2017-01-18T03:22:21.647Z,75.4
2017-01-18T03:22:51.677Z,75.87
2017-01-18T03:23:21.706Z,75.59
2017-01-18T03:23:51.730Z,75.49
2017-01-18T03:24:21.766Z,75.21
2017-01-18T03:24:51.793Z,75.11
2017-01-18T03:25:21.821Z,75.3
2017-01-18T03:25:51.844Z,75.49
2017-01-18T03:26:21.878Z,75.59
2017-01-18T03:26:51.906Z,75.59
2017-01-18T03:27:21.931Z,75.21
2017-01-18T03:27:51.959Z,75.21
2017-01-18T03:28:21.992Z,75.87
2017-01-18T03:28:52.013Z,75.87
2017-01-18T03:29:22.045Z,75.78
2017-01-18T03:29:52.072Z,75.49
2017-01-18T03:30:22.094Z,75.3
2017-01-18T03:30:52.124Z,75.4
2017-01-18T03:31:22.156Z,75.3
2017-01-18T03:31:52.188Z,75.11
2017-01-18T03:32:22.209Z,75.21
2017-01-18T03:32:52.239Z,76.06
2017-01-18T03:33:22.269Z,76.25
2017-01-18T03:33:52.296Z,76.15
2017-01-18T03:34:22.325Z,75.68
2017-01-18T03:34:52.351Z,75.87
2017-01-18T03:35:22.379Z,75.68
2017-01-18T03:35:52.408Z,75.87
2017-01-18T03:36:22.432Z,75.87
2017-01-18T03:36:52.463Z,75.49
2017-01-18T03:37:22.491Z,75.68
2017-01-18T03:37:52.520Z,75.49
2017-01-18T03:38:22.547Z,75.49
2017-01-18T03:38:52.574Z,75.68
2017-01-18T03:39:22.750Z,75.54
2017-01-18T03:39:52.632Z,75.49
2017-01-18T03:40:22.659Z,75.92
2017-01-18T03:40:52.688Z,75.73
2017-01-18T03:41:22.712Z,75.73
2017-01-18T03:41:52.743Z,76.11
2017-01-18T03:42:22.772Z,76.21
2017-01-18T03:42:52.810Z,76.02
2017-01-18T03:43:22.828Z,76.4
2017-01-18T03:43:52.854Z,76.02
2017-01-18T03:44:52.910Z,76.21
2017-01-18T03:45:22.936Z,75.92
2017-01-18T03:45:52.968Z,76.02
2017-01-18T03:46:22.990Z,76.02
2017-01-18T03:46:53.022Z,75.64
2017-01-18T03:47:23.053Z,76.11
2017-01-18T03:47:53.085Z,76.02
2017-01-18T03:48:23.112Z,76.21
2017-01-18T03:48:53.135Z,76.02
2017-01-18T03:49:23.167Z,76.02
2017-01-18T03:49:53.187Z,76.4
2017-01-18T03:50:23.215Z,76.68
2017-01-18T03:50:53.245Z,76.4
2017-01-18T03:51:23.272Z,76.49
2017-01-18T03:51:53.299Z,76.21
2017-01-18T03:52:23.323Z,76.3
2017-01-18T03:52:53.354Z,76.02
2017-01-18T03:53:23.392Z,76.11
2017-01-18T03:53:53.412Z,76.11
2017-01-18T03:54:23.442Z,76.02
2017-01-18T03:54:53.468Z,76.4
2017-01-18T03:55:23.489Z,76.21
2017-01-18T03:55:53.524Z,76.11
2017-01-18T03:56:23.550Z,76.21
2017-01-18T03:56:53.578Z,76.02
2017-01-18T03:57:23.608Z,76.11
2017-01-18T03:57:53.631Z,76.11
2017-01-18T03:58:23.660Z,76.3
2017-01-18T03:58:53.687Z,76.4
2017-01-18T03:59:23.718Z,76.3
2017-01-18T03:59:53.743Z,76.58
2017-01-18T04:00:23.774Z,76.49
2017-01-18T04:00:53.799Z,76.87
2017-01-18T04:01:23.832Z,76.49
2017-01-18T04:01:53.860Z,76.58
2017-01-18T04:02:23.887Z,76.68
2017-01-18T04:02:53.913Z,76.49
2017-01-18T04:03:23.939Z,76.49
2017-01-18T04:03:53.966Z,76.3
2017-01-18T04:04:23.996Z,76.96
2017-01-18T04:04:54.025Z,76.87
2017-01-18T04:05:24.048Z,76.87
2017-01-18T04:05:54.083Z,76.68
2017-01-18T04:06:24.107Z,77.15
2017-01-18T04:06:54.141Z,77.06
2017-01-18T04:07:24.162Z,76.87
2017-01-18T04:07:54.190Z,76.87
2017-01-18T04:08:24.221Z,76.77
2017-01-18T04:08:54.245Z,76.87
2017-01-18T04:09:24.275Z,76.77
2017-01-18T04:09:54.302Z,76.68
2017-01-18T04:10:24.327Z,77.44
2017-01-18T04:10:54.362Z,76.49
2017-01-18T04:11:24.384Z,76.68
2017-01-18T04:11:54.413Z,76.87
2017-01-18T04:12:24.438Z,76.87
2017-01-18T04:12:54.470Z,76.4
2017-01-18T04:13:24.499Z,77.06
2017-01-18T04:13:54.523Z,76.96
2017-01-18T04:14:24.548Z,76.87
2017-01-18T04:14:54.577Z,76.87
2017-01-18T04:15:24.606Z,77.25
2017-01-18T04:15:54.634Z,76.87
2017-01-18T04:16:24.659Z,76.68
2017-01-18T04:16:54.689Z,76.49
2017-01-18T04:17:24.717Z,76.87
2017-01-18T04:17:54.748Z,76.77
2017-01-18T04:18:24.773Z,76.77
2017-01-18T04:18:54.799Z,76.77
2017-01-18T04:19:24.829Z,76.87
2017-01-18T04:19:54.852Z,76.3
2017-01-18T04:20:24.881Z,76.77
2017-01-18T04:20:54.909Z,76.77
2017-01-18T04:21:24.940Z,76.87
2017-01-18T04:21:54.964Z,76.58
2017-01-18T04:22:24.990Z,77.06
2017-01-18T04:22:55.020Z,76.87
2017-01-18T04:23:25.048Z,77.06
2017-01-18T04:23:55.076Z,76.68
2017-01-18T04:24:25.105Z,76.68
2017-01-18T04:24:55.140Z,77.06
2017-01-18T04:25:25.160Z,77.25
2017-01-18T04:25:55.185Z,77.06
2017-01-18T04:26:25.215Z,77.15
2017-01-18T04:26:55.247Z,77.72
2017-01-18T04:27:25.272Z,77.62
2017-01-18T04:27:55.301Z,77.53
2017-01-18T04:28:25.325Z,77.62
2017-01-18T04:28:55.357Z,77.06
2017-01-18T04:29:25.380Z,77.15
2017-01-18T04:29:55.411Z,77.44
2017-01-18T04:30:25.436Z,76.87
2017-01-18T04:30:55.466Z,77.34
2017-01-18T04:31:25.490Z,77.06
2017-01-18T04:31:55.520Z,77.44
2017-01-18T04:32:25.546Z,77.06
2017-01-18T04:32:55.580Z,76.96
2017-01-18T04:33:25.600Z,77.25
2017-01-18T04:33:55.635Z,77.15
2017-01-18T04:34:25.665Z,77.34
2017-01-18T04:34:55.685Z,76.96
2017-01-18T04:35:25.713Z,77.06
2017-01-18T04:35:55.745Z,77.06
2017-01-18T04:36:25.772Z,77.15
2017-01-18T04:36:55.795Z,77.06
2017-01-18T04:37:25.829Z,77.34
2017-01-18T04:37:55.848Z,77.44
2017-01-18T04:38:25.883Z,77.06
2017-01-18T04:38:55.909Z,76.96
2017-01-18T04:39:25.937Z,77.25
2017-01-18T04:39:55.968Z,76.87
2017-01-18T04:40:25.992Z,77.15
2017-01-18T04:40:56.016Z,77.44
2017-01-18T04:41:26.046Z,76.96
2017-01-18T04:41:56.073Z,76.96
2017-01-18T04:42:26.107Z,77.34
2017-01-18T04:42:56.128Z,77.25
2017-01-18T04:43:26.156Z,77.62
2017-01-18T04:43:56.186Z,77.34
2017-01-18T04:44:26.215Z,77.53
2017-01-18T04:44:56.241Z,77.44
2017-01-18T04:45:26.270Z,77.44
2017-01-18T04:45:56.298Z,77.25
2017-01-18T04:46:26.317Z,77.34
2017-01-18T04:46:56.351Z,77.53
2017-01-18T04:47:26.389Z,77.53
2017-01-18T04:47:56.405Z,77.53
2017-01-18T04:48:26.437Z,77.72
2017-01-18T04:48:56.460Z,77.62
2017-01-18T04:49:26.492Z,77.62
2017-01-18T04:49:56.519Z,77.81
2017-01-18T04:50:26.545Z,77.34
2017-01-18T04:50:56.567Z,77.44
2017-01-18T04:51:26.599Z,77.25
2017-01-18T04:51:56.629Z,77.44
2017-01-18T04:52:26.655Z,77.81
2017-01-18T04:52:56.685Z,77.62
2017-01-18T04:53:26.708Z,77.44
2017-01-18T04:53:56.741Z,77.62
2017-01-18T04:54:26.768Z,77.25
2017-01-18T04:54:56.795Z,77.15
2017-01-18T04:55:26.825Z,76.96
2017-01-18T04:55:56.857Z,77.25
2017-01-18T04:56:26.881Z,77.53
2017-01-18T04:56:56.903Z,77.44
2017-01-18T04:57:26.930Z,77.44
2017-01-18T04:57:56.957Z,77.34
2017-01-18T04:58:26.988Z,77.53
2017-01-18T04:58:57.019Z,77.53
2017-01-18T04:59:27.045Z,77.53
2017-01-18T04:59:57.074Z,77.44
2017-01-18T05:00:27.099Z,77.53
2017-01-18T05:00:57.131Z,77.62
2017-01-18T05:01:27.154Z,77.34
2017-01-18T05:01:57.184Z,77.34
2017-01-18T05:02:27.209Z,77.44
2017-01-18T05:02:57.240Z,77.53
2017-01-18T05:03:27.265Z,77.72
2017-01-18T05:03:57.295Z,77.81
2017-01-18T05:04:27.321Z,78
2017-01-18T05:04:57.349Z,78.28
2017-01-18T05:05:27.376Z,78.85
2017-01-18T05:05:57.405Z,78.85
2017-01-18T05:06:27.431Z,78.28
2017-01-18T05:06:57.460Z,78.47
2017-01-18T05:07:27.489Z,78.28
2017-01-18T05:07:57.515Z,78.28
2017-01-18T05:08:27.544Z,78
2017-01-18T05:08:57.577Z,77.81
2017-01-18T05:09:27.602Z,77.53
2017-01-18T05:09:57.626Z,77.53
2017-01-18T05:10:27.653Z,77.62
2017-01-18T05:10:57.682Z,78.19
2017-01-18T05:11:27.715Z,78
2017-01-18T05:11:57.743Z,78.47
2017-01-18T05:12:27.765Z,78.66
2017-01-18T05:12:57.788Z,78.19
2017-01-18T05:13:27.819Z,78.09
2017-01-18T05:13:57.849Z,78.09
2017-01-18T05:14:27.874Z,77.44
2017-01-18T05:14:57.906Z,77.53
2017-01-18T05:15:27.934Z,78.09
2017-01-18T05:15:57.958Z,77.72
2017-01-18T05:16:27.988Z,77.53
2017-01-18T05:16:58.020Z,78
2017-01-18T05:17:28.044Z,77.81
2017-01-18T05:17:58.076Z,77.81
2017-01-18T05:18:28.095Z,78
2017-01-18T05:18:58.130Z,77.53
2017-01-18T05:19:28.155Z,77.62
2017-01-18T05:19:58.186Z,77.53
2017-01-18T05:20:28.213Z,78.19
2017-01-18T05:20:58.235Z,78.09
2017-01-18T05:21:28.271Z,78
2017-01-18T05:21:58.299Z,77.62
2017-01-18T05:22:28.323Z,77.72
2017-01-18T05:22:58.351Z,77.15
2017-01-18T05:23:28.379Z,76.96
2017-01-18T05:23:58.405Z,77.34
2017-01-18T05:24:28.433Z,76.77
2017-01-18T05:24:58.460Z,76.87
2017-01-18T05:25:28.489Z,77.44
2017-01-18T05:25:58.516Z,77.06
2017-01-18T05:26:28.544Z,77.06
2017-01-18T05:26:58.580Z,76.96
2017-01-18T05:27:28.599Z,76.96
2017-01-18T05:27:58.628Z,77.15
2017-01-18T05:28:28.655Z,76.87
2017-01-18T05:28:58.678Z,77.06
2017-01-18T05:29:28.717Z,77.81
2017-01-18T05:29:58.739Z,77.81
2017-01-18T05:30:28.766Z,77.34
2017-01-18T05:30:58.795Z,77.44
2017-01-18T05:31:28.825Z,77.72
2017-01-18T05:31:58.854Z,77.72
2017-01-18T05:32:28.882Z,77.06
2017-01-18T05:32:58.907Z,77.06
2017-01-18T05:33:28.941Z,76.68
2017-01-18T05:33:58.966Z,77.06
2017-01-18T05:34:28.986Z,76.96
2017-01-18T05:34:59.018Z,77.25
2017-01-18T05:35:29.045Z,77.06
2017-01-18T05:35:59.079Z,76.96
2017-01-18T05:36:29.099Z,76.96
2017-01-18T05:36:59.131Z,77.15
2017-01-18T05:37:29.158Z,76.87
2017-01-18T05:37:59.181Z,77.44
2017-01-18T05:38:29.212Z,76.68
2017-01-18T05:38:59.241Z,77.25
2017-01-18T05:39:29.271Z,77.53
2017-01-18T05:39:59.298Z,76.68
2017-01-18T05:40:29.325Z,77.34
2017-01-18T05:40:59.351Z,77.53
2017-01-18T05:41:29.386Z,77.53
2017-01-18T05:41:59.407Z,77.34
2017-01-18T05:42:29.439Z,77.72
2017-01-18T05:42:59.467Z,77.62
2017-01-18T05:43:29.498Z,77.53
2017-01-18T05:43:59.521Z,77.62
2017-01-18T05:44:29.547Z,77.53
2017-01-18T05:44:59.579Z,77.85
2017-01-18T05:45:29.604Z,77.56
2017-01-18T05:45:59.634Z,77.75
2017-01-18T05:46:29.664Z,77.85
2017-01-18T05:46:59.688Z,77.25
2017-01-18T05:47:29.716Z,77.75
2017-01-18T05:47:59.745Z,77.66
2017-01-18T05:48:29.775Z,77.56
2017-01-18T05:48:59.797Z,77.47
2017-01-18T05:49:29.825Z,77.56
2017-01-18T05:49:59.855Z,76.9
2017-01-18T05:50:29.888Z,77.37
2017-01-18T05:50:59.909Z,76.72
2017-01-18T05:51:29.942Z,76.72
2017-01-18T05:51:59.966Z,77.09
2017-01-18T05:52:29.993Z,76.9
2017-01-18T05:53:00.023Z,76.9
2017-01-18T05:53:30.057Z,76.9
2017-01-18T05:54:00.080Z,76.81
2017-01-18T05:54:30.108Z,77.19
2017-01-18T05:55:00.135Z,77.28
2017-01-18T05:55:30.163Z,77.37
2017-01-18T05:56:00.186Z,76.72
2017-01-18T05:56:30.215Z,76.81
2017-01-18T05:57:00.250Z,77
2017-01-18T05:57:30.275Z,76.72
2017-01-18T05:58:00.307Z,76.62
2017-01-18T05:58:30.329Z,76.15
2017-01-18T05:59:00.508Z,76.72
2017-01-18T05:59:30.388Z,76.43
2017-01-18T06:00:00.414Z,76.96
2017-01-18T06:00:30.444Z,77.19
2017-01-18T06:01:00.471Z,77.19
2017-01-18T06:01:30.496Z,76.62
2017-01-18T06:02:00.529Z,76.43
2017-01-18T06:02:30.553Z,76.72
2017-01-18T06:03:00.580Z,76.72
2017-01-18T06:03:30.608Z,76.72
2017-01-18T06:04:00.641Z,76.43
2017-01-18T06:04:30.667Z,77
2017-01-18T06:05:00.700Z,77
2017-01-18T06:05:30.723Z,76.53
2017-01-18T06:06:00.750Z,76.62
2017-01-18T06:06:30.783Z,76.72
2017-01-18T06:07:00.806Z,76.53
2017-01-18T06:07:30.837Z,76.9
2017-01-18T06:08:00.861Z,77
2017-01-18T06:08:30.896Z,76.9
2017-01-18T06:09:00.918Z,76.9
2017-01-18T06:09:30.949Z,76.81
2017-01-18T06:10:00.976Z,77
2017-01-18T06:10:31.003Z,77.09
2017-01-18T06:11:01.029Z,76.72
2017-01-18T06:11:31.062Z,76.15
2017-01-18T06:12:01.089Z,76.43
2017-01-18T06:12:31.117Z,76.9
2017-01-18T06:13:01.145Z,76.72
2017-01-18T06:13:31.172Z,76.34
2017-01-18T06:14:01.200Z,76.43
2017-01-18T06:14:31.227Z,76.81
2017-01-18T06:15:01.256Z,76.81
2017-01-18T06:15:31.281Z,77
2017-01-18T06:16:01.313Z,77
2017-01-18T06:16:31.336Z,77.56
2017-01-18T06:17:01.366Z,76.81
2017-01-18T06:17:31.394Z,76.34
2017-01-18T06:18:01.420Z,76.72
2017-01-18T06:18:31.448Z,76.53
2017-01-18T06:19:01.480Z,77
2017-01-18T06:19:31.510Z,76.9
2017-01-18T06:20:01.536Z,76.34
2017-01-18T06:20:31.562Z,76.25
2017-01-18T06:21:01.588Z,76.25
2017-01-18T06:21:31.620Z,76.15
2017-01-18T06:22:01.797Z,75.96
2017-01-18T06:22:31.674Z,76.34
2017-01-18T06:23:01.705Z,76.15
2017-01-18T06:23:31.727Z,76.06
2017-01-18T06:24:01.764Z,75.96
2017-01-18T06:24:31.786Z,76.15
2017-01-18T06:25:01.819Z,75.96
2017-01-18T06:25:31.845Z,76.25
2017-01-18T06:26:02.123Z,76.06
2017-01-18T06:26:31.901Z,76.15
2017-01-18T06:27:01.926Z,76.06
2017-01-18T06:27:31.966Z,76.15
2017-01-18T06:28:02.131Z,76.15
2017-01-18T06:28:32.039Z,76.4
2017-01-18T06:29:02.040Z,76.11
2017-01-18T06:29:32.075Z,76.3
2017-01-18T06:30:12.739Z,76.06